Etusivu
METAR-TAF:

METAR-TAF

Lentoasemat :

Kimble County Airport

Junction, Texas, Yhdysvallat

Leveyspiiri: 30-30-39N, Pituuspiiri: 099-45-59W, korkeus merenpinnasta: 527 m

Tämänhetkinen sää

Tämä raportti tehtiin 35 minuuttia sitten, kello 01.51 UTC
Tuuli 6 kn etelästä/kaakosta
Lämpötila 29°C
Kosteus 55%
Ilmanpaine 1014 hPa
Näkyvyys: 16.1 km
selkeää

METAR: KJCT 060151Z AUTO 15006KT 10SM CLR 29/19 A2995 RMK AO2 SLP102 T02940189

Aika: 21:26 (02:26 UTC)

Sääennuste

Tämä raportti tehtiin 3 tuntia ja 6 minuuttia sitten, kello 23.20 UTC
Ennuste voimassa 06. päivästä klo 00 UTC - 06. päivään klo 24 UTC
Tuuli 5 kn etelästä/kaakosta
Näkyvyys: 10 km
selkeää

TAF: KJCT 052320Z 0600/0624 15005KT P6SM SKC

Säähavainnot ja -ennusteet yli 4000 lentoasemalta (METAR- ja TAF-raportit).

Käytössä olevat sääasemat on merkitty karttaan keltaisilla ja punaisilla pisteillä.

Aseta hiiri pisteen päälle nähdäksesi sääaseman nimen.

Klikkaa sitten nähdäksesi säähavainnot ja -ennusteet.

Kartan vaihtaminen: klikkaa mustalla rastilla varustettuja vihreitä pisteitä, niin voit zoomata sisään; viivalla varustettua vihreää pistettä, niin voit zoomata ulos tai vihreitä nuolia, niin pääset viereisille kartoille.


METAR-TAF: